sensor_id;sensor_type;location;lat;lon;timestamp;P1;durP1;ratioP1;P2;durP2;ratioP2
65182;SDS011;51771;51.068;-1.780;2024-01-30T00:02:07;4.90;;;0.60;;
65182;SDS011;51771;51.068;-1.780;2024-01-30T00:04:32;5.30;;;0.80;;
65182;SDS011;51771;51.068;-1.780;2024-01-30T00:06:57;1.87;;;0.40;;
65182;SDS011;51771;51.068;-1.780;2024-01-30T00:09:23;4.70;;;1.13;;
65182;SDS011;51771;51.068;-1.780;2024-01-30T00:11:48;4.38;;;0.60;;
65182;SDS011;51771;51.068;-1.780;2024-01-30T00:14:13;4.83;;;0.67;;
65182;SDS011;51771;51.068;-1.780;2024-01-30T00:16:38;2.80;;;0.57;;
65182;SDS011;51771;51.068;-1.780;2024-01-30T00:19:04;1.13;;;0.37;;
65182;SDS011;51771;51.068;-1.780;2024-01-30T00:21:29;1.87;;;0.60;;
65182;SDS011;51771;51.068;-1.780;2024-01-30T00:23:54;6.70;;;0.85;;
65182;SDS011;51771;51.068;-1.780;2024-01-30T00:26:19;6.05;;;0.95;;
65182;SDS011;51771;51.068;-1.780;2024-01-30T00:28:45;6.63;;;0.80;;
65182;SDS011;51771;51.068;-1.780;2024-01-30T00:31:10;6.17;;;0.50;;
65182;SDS011;51771;51.068;-1.780;2024-01-30T00:33:37;1.90;;;0.43;;
65182;SDS011;51771;51.068;-1.780;2024-01-30T00:36:03;8.20;;;1.27;;
65182;SDS011;51771;51.068;-1.780;2024-01-30T00:38:28;4.03;;;0.63;;
65182;SDS011;51771;51.068;-1.780;2024-01-30T00:40:53;1.88;;;0.52;;
65182;SDS011;51771;51.068;-1.780;2024-01-30T00:43:18;2.37;;;0.97;;
65182;SDS011;51771;51.068;-1.780;2024-01-30T00:45:44;4.47;;;0.65;;
65182;SDS011;51771;51.068;-1.780;2024-01-30T00:48:10;4.75;;;0.68;;
65182;SDS011;51771;51.068;-1.780;2024-01-30T00:50:35;5.87;;;1.73;;
65182;SDS011;51771;51.068;-1.780;2024-01-30T00:53:00;2.17;;;1.37;;
65182;SDS011;51771;51.068;-1.780;2024-01-30T00:55:25;1.90;;;0.57;;
65182;SDS011;51771;51.068;-1.780;2024-01-30T00:57:50;1.47;;;0.43;;
65182;SDS011;51771;51.068;-1.780;2024-01-30T01:00:16;7.30;;;0.93;;
65182;SDS011;51771;51.068;-1.780;2024-01-30T01:02:42;5.72;;;0.70;;
65182;SDS011;51771;51.068;-1.780;2024-01-30T01:05:07;2.55;;;0.88;;
65182;SDS011;51771;51.068;-1.780;2024-01-30T01:07:33;6.75;;;1.45;;
65182;SDS011;51771;51.068;-1.780;2024-01-30T01:09:58;4.93;;;0.80;;
65182;SDS011;51771;51.068;-1.780;2024-01-30T01:12:23;6.07;;;1.10;;
65182;SDS011;51771;51.068;-1.780;2024-01-30T01:14:49;2.25;;;0.50;;
65182;SDS011;51771;51.068;-1.780;2024-01-30T01:17:14;6.83;;;1.00;;
65182;SDS011;51771;51.068;-1.780;2024-01-30T01:19:39;5.33;;;0.50;;
65182;SDS011;51771;51.068;-1.780;2024-01-30T01:22:04;7.37;;;0.77;;
65182;SDS011;51771;51.068;-1.780;2024-01-30T01:24:32;5.57;;;0.90;;
65182;SDS011;51771;51.068;-1.780;2024-01-30T01:26:58;4.47;;;0.95;;
65182;SDS011;51771;51.068;-1.780;2024-01-30T01:29:23;3.88;;;0.73;;
65182;SDS011;51771;51.068;-1.780;2024-01-30T01:31:53;6.57;;;1.15;;
65182;SDS011;51771;51.068;-1.780;2024-01-30T01:34:19;9.20;;;0.90;;
65182;SDS011;51771;51.068;-1.780;2024-01-30T01:36:44;3.97;;;1.00;;
65182;SDS011;51771;51.068;-1.780;2024-01-30T01:39:09;2.47;;;0.83;;
65182;SDS011;51771;51.068;-1.780;2024-01-30T01:41:35;3.90;;;1.00;;
65182;SDS011;51771;51.068;-1.780;2024-01-30T01:44:00;3.08;;;0.80;;
65182;SDS011;51771;51.068;-1.780;2024-01-30T01:46:26;3.10;;;0.90;;
65182;SDS011;51771;51.068;-1.780;2024-01-30T01:48:52;4.90;;;1.23;;
65182;SDS011;51771;51.068;-1.780;2024-01-30T01:51:17;3.08;;;0.90;;
65182;SDS011;51771;51.068;-1.780;2024-01-30T01:53:42;2.60;;;0.77;;
65182;SDS011;51771;51.068;-1.780;2024-01-30T01:56:08;4.68;;;0.85;;
65182;SDS011;51771;51.068;-1.780;2024-01-30T01:58:33;8.68;;;1.58;;
65182;SDS011;51771;51.068;-1.780;2024-01-30T02:00:58;2.95;;;0.90;;
65182;SDS011;51771;51.068;-1.780;2024-01-30T02:03:24;4.93;;;1.10;;
65182;SDS011;51771;51.068;-1.780;2024-01-30T02:05:50;3.50;;;1.10;;
65182;SDS011;51771;51.068;-1.780;2024-01-30T02:08:15;4.57;;;1.50;;
65182;SDS011;51771;51.068;-1.780;2024-01-30T02:10:41;3.10;;;0.75;;
65182;SDS011;51771;51.068;-1.780;2024-01-30T02:13:06;4.30;;;0.75;;
65182;SDS011;51771;51.068;-1.780;2024-01-30T02:15:31;3.53;;;1.10;;
65182;SDS011;51771;51.068;-1.780;2024-01-30T02:17:56;2.83;;;0.70;;
65182;SDS011;51771;51.068;-1.780;2024-01-30T02:20:22;2.57;;;0.70;;
65182;SDS011;51771;51.068;-1.780;2024-01-30T02:22:48;3.08;;;0.80;;
65182;SDS011;51771;51.068;-1.780;2024-01-30T02:25:14;2.55;;;0.85;;
65182;SDS011;51771;51.068;-1.780;2024-01-30T02:27:39;2.42;;;0.77;;
65182;SDS011;51771;51.068;-1.780;2024-01-30T02:30:05;1.58;;;0.50;;
65182;SDS011;51771;51.068;-1.780;2024-01-30T02:32:31;2.17;;;0.68;;
65182;SDS011;51771;51.068;-1.780;2024-01-30T02:34:56;1.35;;;0.60;;
65182;SDS011;51771;51.068;-1.780;2024-01-30T02:37:21;3.13;;;0.70;;
65182;SDS011;51771;51.068;-1.780;2024-01-30T02:39:46;1.47;;;0.47;;
65182;SDS011;51771;51.068;-1.780;2024-01-30T02:42:12;2.03;;;0.70;;
65182;SDS011;51771;51.068;-1.780;2024-01-30T02:44:37;0.83;;;0.20;;
65182;SDS011;51771;51.068;-1.780;2024-01-30T02:47:02;0.67;;;0.30;;
65182;SDS011;51771;51.068;-1.780;2024-01-30T02:49:27;0.90;;;0.30;;
65182;SDS011;51771;51.068;-1.780;2024-01-30T02:51:53;1.37;;;0.40;;
65182;SDS011;51771;51.068;-1.780;2024-01-30T02:54:18;0.50;;;0.20;;
65182;SDS011;51771;51.068;-1.780;2024-01-30T02:56:44;1.05;;;0.30;;
65182;SDS011;51771;51.068;-1.780;2024-01-30T02:59:09;0.90;;;0.40;;
65182;SDS011;51771;51.068;-1.780;2024-01-30T03:01:41;1.40;;;0.40;;
65182;SDS011;51771;51.068;-1.780;2024-01-30T03:04:07;0.38;;;0.22;;
65182;SDS011;51771;51.068;-1.780;2024-01-30T03:06:32;1.50;;;0.47;;
65182;SDS011;51771;51.068;-1.780;2024-01-30T03:08:57;1.47;;;0.63;;
65182;SDS011;51771;51.068;-1.780;2024-01-30T03:11:22;1.27;;;0.40;;
65182;SDS011;51771;51.068;-1.780;2024-01-30T03:13:48;1.53;;;0.30;;
65182;SDS011;51771;51.068;-1.780;2024-01-30T03:16:13;0.73;;;0.30;;
65182;SDS011;51771;51.068;-1.780;2024-01-30T03:18:38;1.03;;;0.30;;
65182;SDS011;51771;51.068;-1.780;2024-01-30T03:21:04;2.47;;;0.70;;
65182;SDS011;51771;51.068;-1.780;2024-01-30T03:23:29;1.30;;;0.50;;
65182;SDS011;51771;51.068;-1.780;2024-01-30T03:25:54;2.78;;;0.68;;
65182;SDS011;51771;51.068;-1.780;2024-01-30T03:28:19;1.57;;;0.40;;
65182;SDS011;51771;51.068;-1.780;2024-01-30T03:30:44;4.93;;;0.80;;
65182;SDS011;51771;51.068;-1.780;2024-01-30T03:33:10;3.20;;;0.67;;
65182;SDS011;51771;51.068;-1.780;2024-01-30T03:35:35;3.10;;;0.80;;
65182;SDS011;51771;51.068;-1.780;2024-01-30T03:38:00;1.70;;;0.50;;
65182;SDS011;51771;51.068;-1.780;2024-01-30T03:40:25;3.03;;;0.50;;
65182;SDS011;51771;51.068;-1.780;2024-01-30T03:42:50;1.83;;;0.70;;
65182;SDS011;51771;51.068;-1.780;2024-01-30T03:45:16;3.33;;;0.87;;
65182;SDS011;51771;51.068;-1.780;2024-01-30T03:47:43;5.10;;;0.77;;
65182;SDS011;51771;51.068;-1.780;2024-01-30T03:50:08;2.05;;;0.50;;
65182;SDS011;51771;51.068;-1.780;2024-01-30T03:52:33;2.63;;;0.50;;
65182;SDS011;51771;51.068;-1.780;2024-01-30T03:54:58;3.97;;;0.50;;
65182;SDS011;51771;51.068;-1.780;2024-01-30T03:57:24;1.33;;;0.30;;
65182;SDS011;51771;51.068;-1.780;2024-01-30T03:59:50;2.13;;;0.60;;
65182;SDS011;51771;51.068;-1.780;2024-01-30T04:02:15;4.97;;;0.60;;
65182;SDS011;51771;51.068;-1.780;2024-01-30T04:04:40;2.88;;;0.47;;
65182;SDS011;51771;51.068;-1.780;2024-01-30T04:07:05;5.33;;;0.70;;
65182;SDS011;51771;51.068;-1.780;2024-01-30T04:09:30;7.23;;;0.47;;
65182;SDS011;51771;51.068;-1.780;2024-01-30T04:11:57;6.05;;;1.20;;
65182;SDS011;51771;51.068;-1.780;2024-01-30T04:14:22;3.93;;;0.60;;
65182;SDS011;51771;51.068;-1.780;2024-01-30T04:16:47;2.30;;;0.60;;
65182;SDS011;51771;51.068;-1.780;2024-01-30T04:19:13;1.00;;;0.60;;
65182;SDS011;51771;51.068;-1.780;2024-01-30T04:21:38;1.57;;;0.60;;
65182;SDS011;51771;51.068;-1.780;2024-01-30T04:24:03;5.20;;;0.70;;
65182;SDS011;51771;51.068;-1.780;2024-01-30T04:26:28;2.65;;;0.45;;
65182;SDS011;51771;51.068;-1.780;2024-01-30T04:28:54;3.20;;;0.60;;
65182;SDS011;51771;51.068;-1.780;2024-01-30T04:31:19;1.25;;;0.45;;
65182;SDS011;51771;51.068;-1.780;2024-01-30T04:33:44;3.25;;;0.65;;
65182;SDS011;51771;51.068;-1.780;2024-01-30T04:36:10;0.77;;;0.40;;
65182;SDS011;51771;51.068;-1.780;2024-01-30T04:38:35;3.15;;;0.50;;
65182;SDS011;51771;51.068;-1.780;2024-01-30T04:41:00;1.27;;;0.47;;
65182;SDS011;51771;51.068;-1.780;2024-01-30T04:43:25;2.23;;;0.70;;
65182;SDS011;51771;51.068;-1.780;2024-01-30T04:45:51;0.70;;;0.25;;
65182;SDS011;51771;51.068;-1.780;2024-01-30T04:48:16;2.80;;;0.80;;
65182;SDS011;51771;51.068;-1.780;2024-01-30T04:50:41;3.57;;;0.93;;
65182;SDS011;51771;51.068;-1.780;2024-01-30T04:53:07;1.87;;;0.43;;
65182;SDS011;51771;51.068;-1.780;2024-01-30T04:55:32;3.65;;;0.40;;
65182;SDS011;51771;51.068;-1.780;2024-01-30T04:57:58;7.10;;;0.70;;
65182;SDS011;51771;51.068;-1.780;2024-01-30T05:00:23;1.63;;;0.60;;
65182;SDS011;51771;51.068;-1.780;2024-01-30T05:02:48;1.93;;;0.63;;
65182;SDS011;51771;51.068;-1.780;2024-01-30T05:05:13;4.73;;;0.83;;
65182;SDS011;51771;51.068;-1.780;2024-01-30T05:07:39;4.90;;;1.30;;
65182;SDS011;51771;51.068;-1.780;2024-01-30T05:10:04;4.35;;;1.20;;
65182;SDS011;51771;51.068;-1.780;2024-01-30T05:12:29;5.03;;;1.10;;
65182;SDS011;51771;51.068;-1.780;2024-01-30T05:14:54;3.70;;;0.75;;
65182;SDS011;51771;51.068;-1.780;2024-01-30T05:17:20;4.17;;;1.10;;
65182;SDS011;51771;51.068;-1.780;2024-01-30T05:19:45;4.82;;;1.70;;
65182;SDS011;51771;51.068;-1.780;2024-01-30T05:22:10;4.63;;;1.70;;
65182;SDS011;51771;51.068;-1.780;2024-01-30T05:24:36;4.63;;;2.00;;
65182;SDS011;51771;51.068;-1.780;2024-01-30T05:27:01;5.22;;;2.20;;
65182;SDS011;51771;51.068;-1.780;2024-01-30T05:29:27;8.95;;;2.03;;
65182;SDS011;51771;51.068;-1.780;2024-01-30T05:31:52;4.73;;;1.80;;
65182;SDS011;51771;51.068;-1.780;2024-01-30T05:34:17;9.23;;;2.57;;
65182;SDS011;51771;51.068;-1.780;2024-01-30T05:36:43;5.80;;;1.77;;
65182;SDS011;51771;51.068;-1.780;2024-01-30T05:39:08;6.27;;;2.23;;
65182;SDS011;51771;51.068;-1.780;2024-01-30T05:41:33;4.13;;;1.80;;
65182;SDS011;51771;51.068;-1.780;2024-01-30T05:43:58;5.30;;;2.00;;
65182;SDS011;51771;51.068;-1.780;2024-01-30T05:46:23;5.50;;;2.10;;
65182;SDS011;51771;51.068;-1.780;2024-01-30T05:48:49;5.13;;;1.60;;
65182;SDS011;51771;51.068;-1.780;2024-01-30T05:51:14;3.90;;;1.73;;
65182;SDS011;51771;51.068;-1.780;2024-01-30T05:53:39;6.82;;;2.20;;
65182;SDS011;51771;51.068;-1.780;2024-01-30T05:56:04;8.53;;;2.20;;
65182;SDS011;51771;51.068;-1.780;2024-01-30T05:58:30;6.35;;;2.30;;
65182;SDS011;51771;51.068;-1.780;2024-01-30T06:00:56;6.15;;;1.50;;
65182;SDS011;51771;51.068;-1.780;2024-01-30T06:03:21;5.90;;;1.67;;
65182;SDS011;51771;51.068;-1.780;2024-01-30T06:05:46;6.33;;;2.60;;
65182;SDS011;51771;51.068;-1.780;2024-01-30T06:08:11;6.40;;;1.90;;
65182;SDS011;51771;51.068;-1.780;2024-01-30T06:10:37;9.35;;;2.35;;
65182;SDS011;51771;51.068;-1.780;2024-01-30T06:13:02;6.13;;;1.97;;
65182;SDS011;51771;51.068;-1.780;2024-01-30T06:15:27;4.77;;;1.93;;
65182;SDS011;51771;51.068;-1.780;2024-01-30T06:17:54;6.30;;;1.77;;
65182;SDS011;51771;51.068;-1.780;2024-01-30T06:20:20;4.95;;;1.77;;
65182;SDS011;51771;51.068;-1.780;2024-01-30T06:22:45;5.93;;;2.27;;
65182;SDS011;51771;51.068;-1.780;2024-01-30T06:25:10;5.53;;;2.00;;
65182;SDS011;51771;51.068;-1.780;2024-01-30T06:27:37;6.88;;;2.38;;
65182;SDS011;51771;51.068;-1.780;2024-01-30T06:30:02;8.17;;;2.77;;
65182;SDS011;51771;51.068;-1.780;2024-01-30T06:32:27;9.55;;;2.55;;
65182;SDS011;51771;51.068;-1.780;2024-01-30T06:34:53;5.25;;;1.90;;
65182;SDS011;51771;51.068;-1.780;2024-01-30T06:37:18;8.60;;;2.70;;
65182;SDS011;51771;51.068;-1.780;2024-01-30T06:39:44;6.80;;;2.40;;
65182;SDS011;51771;51.068;-1.780;2024-01-30T06:42:09;9.40;;;2.55;;
65182;SDS011;51771;51.068;-1.780;2024-01-30T06:44:34;9.57;;;2.65;;
65182;SDS011;51771;51.068;-1.780;2024-01-30T06:46:59;18.53;;;3.77;;
65182;SDS011;51771;51.068;-1.780;2024-01-30T06:49:24;10.77;;;3.07;;
65182;SDS011;51771;51.068;-1.780;2024-01-30T06:51:50;14.30;;;4.70;;
65182;SDS011;51771;51.068;-1.780;2024-01-30T06:54:15;10.43;;;2.97;;
65182;SDS011;51771;51.068;-1.780;2024-01-30T06:56:40;6.60;;;2.83;;
65182;SDS011;51771;51.068;-1.780;2024-01-30T06:59:05;13.60;;;2.93;;
65182;SDS011;51771;51.068;-1.780;2024-01-30T07:01:31;9.40;;;3.10;;
65182;SDS011;51771;51.068;-1.780;2024-01-30T07:03:57;11.65;;;3.47;;
65182;SDS011;51771;51.068;-1.780;2024-01-30T07:06:22;9.88;;;3.00;;
65182;SDS011;51771;51.068;-1.780;2024-01-30T07:08:48;15.53;;;3.70;;
65182;SDS011;51771;51.068;-1.780;2024-01-30T07:11:20;13.60;;;4.13;;
65182;SDS011;51771;51.068;-1.780;2024-01-30T07:13:47;11.40;;;3.70;;
65182;SDS011;51771;51.068;-1.780;2024-01-30T07:16:13;8.75;;;2.70;;
65182;SDS011;51771;51.068;-1.780;2024-01-30T07:18:38;11.60;;;3.00;;
65182;SDS011;51771;51.068;-1.780;2024-01-30T07:21:03;7.47;;;3.07;;
65182;SDS011;51771;51.068;-1.780;2024-01-30T07:23:29;8.75;;;3.05;;
65182;SDS011;51771;51.068;-1.780;2024-01-30T07:25:55;13.63;;;3.00;;
65182;SDS011;51771;51.068;-1.780;2024-01-30T07:28:20;15.47;;;3.33;;
65182;SDS011;51771;51.068;-1.780;2024-01-30T07:30:45;12.40;;;2.85;;
65182;SDS011;51771;51.068;-1.780;2024-01-30T07:33:10;16.35;;;3.17;;
65182;SDS011;51771;51.068;-1.780;2024-01-30T07:35:36;9.63;;;3.00;;
65182;SDS011;51771;51.068;-1.780;2024-01-30T07:38:01;12.02;;;3.22;;
65182;SDS011;51771;51.068;-1.780;2024-01-30T07:40:26;7.10;;;2.95;;
65182;SDS011;51771;51.068;-1.780;2024-01-30T07:42:53;7.63;;;2.23;;
65182;SDS011;51771;51.068;-1.780;2024-01-30T07:45:18;14.57;;;2.92;;
65182;SDS011;51771;51.068;-1.780;2024-01-30T07:47:47;12.38;;;2.92;;
65182;SDS011;51771;51.068;-1.780;2024-01-30T07:50:12;16.10;;;3.50;;
65182;SDS011;51771;51.068;-1.780;2024-01-30T07:52:37;10.68;;;3.15;;
65182;SDS011;51771;51.068;-1.780;2024-01-30T07:55:04;13.73;;;3.65;;
65182;SDS011;51771;51.068;-1.780;2024-01-30T07:57:29;14.18;;;3.55;;
65182;SDS011;51771;51.068;-1.780;2024-01-30T07:59:54;9.50;;;2.87;;
65182;SDS011;51771;51.068;-1.780;2024-01-30T08:02:20;13.60;;;3.10;;
65182;SDS011;51771;51.068;-1.780;2024-01-30T08:04:45;8.75;;;3.17;;
65182;SDS011;51771;51.068;-1.780;2024-01-30T08:07:13;9.45;;;3.00;;
65182;SDS011;51771;51.068;-1.780;2024-01-30T08:09:39;8.18;;;3.03;;
65182;SDS011;51771;51.068;-1.780;2024-01-30T08:12:04;14.37;;;2.93;;
65182;SDS011;51771;51.068;-1.780;2024-01-30T08:14:29;12.40;;;3.40;;
65182;SDS011;51771;51.068;-1.780;2024-01-30T08:16:55;11.23;;;2.70;;
65182;SDS011;51771;51.068;-1.780;2024-01-30T08:19:20;10.90;;;2.97;;
65182;SDS011;51771;51.068;-1.780;2024-01-30T08:21:45;8.90;;;2.97;;
65182;SDS011;51771;51.068;-1.780;2024-01-30T08:24:10;9.43;;;2.93;;
65182;SDS011;51771;51.068;-1.780;2024-01-30T08:26:36;9.87;;;2.73;;
65182;SDS011;51771;51.068;-1.780;2024-01-30T08:29:02;11.90;;;3.35;;
65182;SDS011;51771;51.068;-1.780;2024-01-30T08:31:27;10.13;;;3.33;;
65182;SDS011;51771;51.068;-1.780;2024-01-30T08:33:52;16.65;;;3.03;;
65182;SDS011;51771;51.068;-1.780;2024-01-30T08:36:17;11.50;;;2.57;;
65182;SDS011;51771;51.068;-1.780;2024-01-30T08:38:43;7.93;;;2.55;;
65182;SDS011;51771;51.068;-1.780;2024-01-30T08:41:08;15.10;;;2.27;;
65182;SDS011;51771;51.068;-1.780;2024-01-30T08:43:33;5.25;;;1.92;;
65182;SDS011;51771;51.068;-1.780;2024-01-30T08:46:02;11.33;;;2.50;;
65182;SDS011;51771;51.068;-1.780;2024-01-30T08:48:27;7.88;;;2.33;;
65182;SDS011;51771;51.068;-1.780;2024-01-30T08:50:52;8.70;;;2.50;;
65182;SDS011;51771;51.068;-1.780;2024-01-30T08:53:18;11.18;;;2.17;;
65182;SDS011;51771;51.068;-1.780;2024-01-30T08:55:43;8.93;;;2.78;;
65182;SDS011;51771;51.068;-1.780;2024-01-30T08:58:09;8.48;;;1.63;;
65182;SDS011;51771;51.068;-1.780;2024-01-30T09:00:34;6.53;;;1.80;;
65182;SDS011;51771;51.068;-1.780;2024-01-30T09:02:59;11.40;;;2.17;;
65182;SDS011;51771;51.068;-1.780;2024-01-30T09:05:24;11.55;;;2.03;;
65182;SDS011;51771;51.068;-1.780;2024-01-30T09:07:49;7.53;;;2.00;;
65182;SDS011;51771;51.068;-1.780;2024-01-30T09:10:15;14.97;;;2.13;;
65182;SDS011;51771;51.068;-1.780;2024-01-30T09:12:40;10.88;;;1.67;;
65182;SDS011;51771;51.068;-1.780;2024-01-30T09:15:06;8.45;;;1.85;;
65182;SDS011;51771;51.068;-1.780;2024-01-30T09:17:31;9.73;;;2.08;;
65182;SDS011;51771;51.068;-1.780;2024-01-30T09:19:56;9.25;;;1.77;;
65182;SDS011;51771;51.068;-1.780;2024-01-30T09:22:21;10.73;;;2.07;;
65182;SDS011;51771;51.068;-1.780;2024-01-30T09:24:47;8.93;;;1.87;;
65182;SDS011;51771;51.068;-1.780;2024-01-30T09:27:12;6.80;;;2.03;;
65182;SDS011;51771;51.068;-1.780;2024-01-30T09:29:37;12.30;;;2.40;;
65182;SDS011;51771;51.068;-1.780;2024-01-30T09:32:03;6.70;;;2.13;;
65182;SDS011;51771;51.068;-1.780;2024-01-30T09:34:28;8.30;;;1.75;;
65182;SDS011;51771;51.068;-1.780;2024-01-30T09:36:54;8.77;;;1.65;;
65182;SDS011;51771;51.068;-1.780;2024-01-30T09:39:19;11.70;;;1.77;;
65182;SDS011;51771;51.068;-1.780;2024-01-30T09:41:48;9.57;;;2.45;;
65182;SDS011;51771;51.068;-1.780;2024-01-30T09:44:14;7.85;;;1.60;;
65182;SDS011;51771;51.068;-1.780;2024-01-30T09:46:40;9.77;;;2.00;;
65182;SDS011;51771;51.068;-1.780;2024-01-30T09:49:06;11.07;;;1.73;;
65182;SDS011;51771;51.068;-1.780;2024-01-30T09:51:33;10.98;;;1.50;;
65182;SDS011;51771;51.068;-1.780;2024-01-30T09:53:59;5.97;;;2.00;;
65182;SDS011;51771;51.068;-1.780;2024-01-30T09:56:24;10.60;;;1.90;;
65182;SDS011;51771;51.068;-1.780;2024-01-30T09:58:49;8.20;;;1.93;;
65182;SDS011;51771;51.068;-1.780;2024-01-30T10:01:15;4.72;;;1.45;;
65182;SDS011;51771;51.068;-1.780;2024-01-30T10:03:43;9.10;;;1.75;;
65182;SDS011;51771;51.068;-1.780;2024-01-30T10:06:09;6.35;;;2.03;;
65182;SDS011;51771;51.068;-1.780;2024-01-30T10:08:34;9.80;;;1.88;;
65182;SDS011;51771;51.068;-1.780;2024-01-30T10:11:00;15.65;;;2.38;;
65182;SDS011;51771;51.068;-1.780;2024-01-30T10:13:26;5.85;;;1.35;;
65182;SDS011;51771;51.068;-1.780;2024-01-30T10:15:52;9.00;;;2.00;;
65182;SDS011;51771;51.068;-1.780;2024-01-30T10:18:17;5.85;;;1.55;;
65182;SDS011;51771;51.068;-1.780;2024-01-30T10:20:43;9.97;;;2.03;;
65182;SDS011;51771;51.068;-1.780;2024-01-30T10:23:08;9.70;;;1.80;;
65182;SDS011;51771;51.068;-1.780;2024-01-30T10:25:33;11.52;;;1.48;;
65182;SDS011;51771;51.068;-1.780;2024-01-30T10:27:59;11.33;;;2.43;;
65182;SDS011;51771;51.068;-1.780;2024-01-30T10:30:24;7.65;;;1.83;;
65182;SDS011;51771;51.068;-1.780;2024-01-30T10:32:49;14.00;;;2.30;;
65182;SDS011;51771;51.068;-1.780;2024-01-30T10:35:15;5.72;;;1.83;;
65182;SDS011;51771;51.068;-1.780;2024-01-30T10:37:41;9.07;;;1.85;;
65182;SDS011;51771;51.068;-1.780;2024-01-30T10:40:08;7.25;;;2.92;;
65182;SDS011;51771;51.068;-1.780;2024-01-30T10:42:34;6.05;;;1.92;;
65182;SDS011;51771;51.068;-1.780;2024-01-30T10:47:28;6.55;;;1.73;;
65182;SDS011;51771;51.068;-1.780;2024-01-30T10:49:54;7.72;;;2.30;;
65182;SDS011;51771;51.068;-1.780;2024-01-30T10:52:19;10.80;;;1.98;;
65182;SDS011;51771;51.068;-1.780;2024-01-30T10:54:45;7.05;;;1.75;;
65182;SDS011;51771;51.068;-1.780;2024-01-30T10:57:11;10.65;;;2.00;;
65182;SDS011;51771;51.068;-1.780;2024-01-30T10:59:37;5.90;;;2.15;;
65182;SDS011;51771;51.068;-1.780;2024-01-30T11:02:03;8.43;;;1.63;;
65182;SDS011;51771;51.068;-1.780;2024-01-30T11:04:35;4.95;;;1.42;;
65182;SDS011;51771;51.068;-1.780;2024-01-30T11:07:00;6.22;;;1.55;;
65182;SDS011;51771;51.068;-1.780;2024-01-30T11:09:28;12.23;;;2.28;;
65182;SDS011;51771;51.068;-1.780;2024-01-30T11:11:57;7.65;;;1.75;;
65182;SDS011;51771;51.068;-1.780;2024-01-30T11:14:27;5.88;;;2.03;;
65182;SDS011;51771;51.068;-1.780;2024-01-30T11:16:56;8.80;;;2.20;;
65182;SDS011;51771;51.068;-1.780;2024-01-30T11:19:22;6.57;;;1.77;;
65182;SDS011;51771;51.068;-1.780;2024-01-30T11:21:49;7.50;;;1.90;;
65182;SDS011;51771;51.068;-1.780;2024-01-30T11:24:15;7.55;;;1.73;;
65182;SDS011;51771;51.068;-1.780;2024-01-30T11:26:42;8.13;;;1.77;;
65182;SDS011;51771;51.068;-1.780;2024-01-30T11:29:07;8.88;;;2.03;;
65182;SDS011;51771;51.068;-1.780;2024-01-30T11:31:33;8.40;;;2.30;;
65182;SDS011;51771;51.068;-1.780;2024-01-30T11:33:58;9.13;;;1.80;;
65182;SDS011;51771;51.068;-1.780;2024-01-30T11:36:25;9.38;;;1.98;;
65182;SDS011;51771;51.068;-1.780;2024-01-30T11:38:50;11.32;;;2.50;;
65182;SDS011;51771;51.068;-1.780;2024-01-30T11:41:15;7.23;;;2.00;;
65182;SDS011;51771;51.068;-1.780;2024-01-30T11:43:41;5.25;;;1.90;;
65182;SDS011;51771;51.068;-1.780;2024-01-30T11:46:06;10.67;;;1.70;;
65182;SDS011;51771;51.068;-1.780;2024-01-30T11:48:32;5.07;;;1.45;;
65182;SDS011;51771;51.068;-1.780;2024-01-30T11:50:57;3.00;;;1.30;;
65182;SDS011;51771;51.068;-1.780;2024-01-30T11:53:22;8.40;;;1.30;;
65182;SDS011;51771;51.068;-1.780;2024-01-30T11:55:51;6.00;;;1.35;;
65182;SDS011;51771;51.068;-1.780;2024-01-30T11:58:16;5.40;;;1.33;;
65182;SDS011;51771;51.068;-1.780;2024-01-30T12:00:41;5.27;;;1.10;;
65182;SDS011;51771;51.068;-1.780;2024-01-30T12:03:06;4.03;;;1.65;;
65182;SDS011;51771;51.068;-1.780;2024-01-30T12:05:32;4.93;;;1.25;;
65182;SDS011;51771;51.068;-1.780;2024-01-30T12:07:57;2.83;;;0.98;;
65182;SDS011;51771;51.068;-1.780;2024-01-30T12:10:26;2.88;;;1.30;;
65182;SDS011;51771;51.068;-1.780;2024-01-30T12:12:51;4.55;;;1.25;;
65182;SDS011;51771;51.068;-1.780;2024-01-30T12:15:18;7.43;;;1.90;;
65182;SDS011;51771;51.068;-1.780;2024-01-30T12:17:43;2.78;;;0.98;;
65182;SDS011;51771;51.068;-1.780;2024-01-30T12:20:09;5.20;;;1.25;;
65182;SDS011;51771;51.068;-1.780;2024-01-30T12:22:38;5.43;;;1.45;;
65182;SDS011;51771;51.068;-1.780;2024-01-30T12:25:05;5.25;;;1.10;;
65182;SDS011;51771;51.068;-1.780;2024-01-30T12:27:30;3.38;;;0.98;;
65182;SDS011;51771;51.068;-1.780;2024-01-30T12:29:56;2.72;;;0.80;;
65182;SDS011;51771;51.068;-1.780;2024-01-30T12:32:22;2.22;;;0.70;;
65182;SDS011;51771;51.068;-1.780;2024-01-30T12:34:48;3.08;;;1.02;;
65182;SDS011;51771;51.068;-1.780;2024-01-30T12:37:13;3.73;;;1.17;;
65182;SDS011;51771;51.068;-1.780;2024-01-30T12:39:38;4.13;;;0.88;;
65182;SDS011;51771;51.068;-1.780;2024-01-30T12:42:04;2.63;;;0.67;;
65182;SDS011;51771;51.068;-1.780;2024-01-30T12:44:29;2.08;;;0.60;;
65182;SDS011;51771;51.068;-1.780;2024-01-30T12:46:54;4.73;;;0.90;;
65182;SDS011;51771;51.068;-1.780;2024-01-30T12:49:19;4.30;;;1.02;;
65182;SDS011;51771;51.068;-1.780;2024-01-30T12:51:44;2.87;;;0.90;;
65182;SDS011;51771;51.068;-1.780;2024-01-30T12:54:10;2.97;;;0.75;;
65182;SDS011;51771;51.068;-1.780;2024-01-30T12:56:37;2.63;;;1.05;;
65182;SDS011;51771;51.068;-1.780;2024-01-30T12:59:02;3.30;;;0.87;;
65182;SDS011;51771;51.068;-1.780;2024-01-30T13:01:28;2.13;;;0.80;;
65182;SDS011;51771;51.068;-1.780;2024-01-30T13:03:53;3.08;;;1.00;;
65182;SDS011;51771;51.068;-1.780;2024-01-30T13:06:18;2.92;;;0.90;;
65182;SDS011;51771;51.068;-1.780;2024-01-30T13:08:43;5.35;;;1.20;;
65182;SDS011;51771;51.068;-1.780;2024-01-30T13:11:09;2.70;;;0.90;;
65182;SDS011;51771;51.068;-1.780;2024-01-30T13:13:34;1.77;;;0.68;;
65182;SDS011;51771;51.068;-1.780;2024-01-30T13:16:00;2.38;;;0.70;;
65182;SDS011;51771;51.068;-1.780;2024-01-30T13:18:25;3.75;;;0.90;;
65182;SDS011;51771;51.068;-1.780;2024-01-30T13:20:51;2.80;;;0.63;;
65182;SDS011;51771;51.068;-1.780;2024-01-30T13:23:16;2.70;;;0.80;;
65182;SDS011;51771;51.068;-1.780;2024-01-30T13:25:41;5.57;;;1.20;;
65182;SDS011;51771;51.068;-1.780;2024-01-30T13:28:06;3.80;;;1.40;;
65182;SDS011;51771;51.068;-1.780;2024-01-30T13:30:31;3.27;;;0.87;;
65182;SDS011;51771;51.068;-1.780;2024-01-30T13:32:57;4.83;;;0.90;;
65182;SDS011;51771;51.068;-1.780;2024-01-30T13:35:22;9.53;;;1.00;;
65182;SDS011;51771;51.068;-1.780;2024-01-30T13:37:47;4.70;;;0.95;;
65182;SDS011;51771;51.068;-1.780;2024-01-30T13:40:13;2.95;;;0.80;;
65182;SDS011;51771;51.068;-1.780;2024-01-30T13:42:39;2.30;;;0.80;;
65182;SDS011;51771;51.068;-1.780;2024-01-30T13:45:05;2.05;;;0.90;;
65182;SDS011;51771;51.068;-1.780;2024-01-30T13:47:30;2.47;;;0.98;;
65182;SDS011;51771;51.068;-1.780;2024-01-30T13:49:55;4.00;;;1.30;;
65182;SDS011;51771;51.068;-1.780;2024-01-30T13:52:21;2.97;;;0.80;;
65182;SDS011;51771;51.068;-1.780;2024-01-30T13:54:46;3.50;;;0.68;;
65182;SDS011;51771;51.068;-1.780;2024-01-30T13:57:12;2.13;;;0.98;;
65182;SDS011;51771;51.068;-1.780;2024-01-30T13:59:37;2.42;;;1.08;;
65182;SDS011;51771;51.068;-1.780;2024-01-30T14:02:03;1.60;;;0.80;;
65182;SDS011;51771;51.068;-1.780;2024-01-30T14:04:28;2.97;;;0.85;;
65182;SDS011;51771;51.068;-1.780;2024-01-30T14:06:53;2.73;;;0.90;;
65182;SDS011;51771;51.068;-1.780;2024-01-30T14:09:18;2.60;;;1.17;;
65182;SDS011;51771;51.068;-1.780;2024-01-30T14:11:46;2.28;;;0.80;;
65182;SDS011;51771;51.068;-1.780;2024-01-30T14:14:11;1.53;;;0.70;;
65182;SDS011;51771;51.068;-1.780;2024-01-30T14:16:36;3.10;;;0.90;;
65182;SDS011;51771;51.068;-1.780;2024-01-30T14:19:01;2.57;;;0.73;;
65182;SDS011;51771;51.068;-1.780;2024-01-30T14:21:27;2.60;;;0.70;;
65182;SDS011;51771;51.068;-1.780;2024-01-30T14:23:52;3.37;;;1.40;;
65182;SDS011;51771;51.068;-1.780;2024-01-30T14:26:17;2.37;;;0.90;;